Time;durP1;ratioP1;P1;durP2;ratioP2;P2;SDS_P1;SDS_P2;PMS_P1;PMS_P2;Temp;Humidity;BMP_temperature;BMP_pressure;BME280_temperature;BME280_humidity;BME280_pressure;Samples;Min_cycle;Max_cycle;Signal;HPM_P1;HPM_P2
2023/10/28 00:00:58;;;;;;;175.80;162.80;;;9.60;99.90;;;;;;4891476;29;20127;-77
2023/10/28 00:03:25;;;;;;;160.37;148.77;;;9.60;99.90;;;;;;4881769;29;20111;-77
2023/10/28 00:05:50;;;;;;;237.17;222.00;;;9.50;99.90;;;;;;4893791;29;20048;-77
2023/10/28 00:08:16;;;;;;;213.63;198.80;;;9.50;99.90;;;;;;4878296;29;20296;-77
2023/10/28 00:10:42;;;;;;;199.77;185.67;;;9.50;99.90;;;;;;4892840;29;20047;-77
2023/10/28 00:13:08;;;;;;;186.83;172.93;;;9.50;99.90;;;;;;4896044;29;20119;-77
2023/10/28 00:15:35;;;;;;;220.10;205.37;;;9.50;99.90;;;;;;4892964;29;20847;-77
2023/10/28 00:18:02;;;;;;;230.90;214.77;;;9.50;99.90;;;;;;4906300;29;20786;-74
2023/10/28 00:20:29;;;;;;;247.80;231.43;;;9.50;99.90;;;;;;4889897;29;20312;-74
2023/10/28 00:22:56;;;;;;;209.93;194.50;;;9.50;99.90;;;;;;4874830;29;20285;-74
2023/10/28 00:25:22;;;;;;;235.97;219.23;;;9.40;99.90;;;;;;4888036;29;20800;-74
2023/10/28 00:27:48;;;;;;;243.50;224.53;;;9.40;99.90;;;;;;4890128;29;20284;-74
2023/10/28 00:30:14;;;;;;;264.80;247.17;;;9.40;99.90;;;;;;4875794;29;20041;-74
2023/10/28 00:32:41;;;;;;;229.47;212.40;;;9.40;99.90;;;;;;4894839;29;20293;-73
2023/10/28 00:35:12;;;;;;;272.67;254.47;;;9.40;99.90;;;;;;4875599;29;20328;-73
2023/10/28 00:37:38;;;;;;;231.53;213.40;;;9.40;99.90;;;;;;4876534;29;20304;-74
2023/10/28 00:40:06;;;;;;;270.03;251.87;;;9.30;99.90;;;;;;4873485;29;20876;-73
2023/10/28 00:42:36;;;;;;;259.57;242.47;;;9.30;99.90;;;;;;4876962;29;20043;-74
2023/10/28 00:45:08;;;;;;;227.07;210.73;;;9.30;99.90;;;;;;4891695;29;20292;-74
2023/10/28 00:47:44;;;;;;;244.97;227.50;;;9.30;99.90;;;;;;4890408;29;20380;-73
2023/10/28 00:50:14;;;;;;;289.23;269.83;;;9.30;99.90;;;;;;4890403;29;20837;-74
2023/10/28 00:52:43;;;;;;;253.57;234.87;;;9.30;99.90;;;;;;4890765;29;20289;-74
2023/10/28 00:55:13;;;;;;;264.07;245.83;;;9.20;99.90;;;;;;4872081;29;20293;-74
2023/10/28 00:57:42;;;;;;;299.00;279.07;;;9.20;99.90;;;;;;4876678;29;20300;-74
2023/10/28 01:00:09;;;;;;;267.93;248.60;;;9.20;99.90;;;;;;4883893;29;20332;-73
2023/10/28 01:02:35;;;;;;;279.50;257.80;;;9.20;99.90;;;;;;4872514;29;20297;-74
2023/10/28 01:05:02;;;;;;;236.43;215.27;;;9.10;99.90;;;;;;4891257;29;20863;-74
2023/10/28 01:07:29;;;;;;;254.07;235.57;;;9.10;99.90;;;;;;4890455;29;20289;-74
2023/10/28 01:09:55;;;;;;;262.03;243.63;;;9.10;99.90;;;;;;4886680;29;20288;-74
2023/10/28 01:12:23;;;;;;;269.53;250.37;;;9.10;99.90;;;;;;4893002;29;20347;-74
2023/10/28 01:14:50;;;;;;;234.27;215.07;;;9.00;99.90;;;;;;4887496;29;20781;-74
2023/10/28 01:17:16;;;;;;;255.47;237.93;;;9.00;99.90;;;;;;4889539;29;20284;-74
2023/10/28 01:19:42;;;;;;;258.63;241.40;;;9.00;99.90;;;;;;4874929;29;20312;-74
2023/10/28 01:22:07;;;;;;;263.03;245.23;;;9.00;99.90;;;;;;4895340;29;20709;-73
2023/10/28 01:24:34;;;;;;;273.20;255.50;;;9.00;99.90;;;;;;4890972;29;20040;-74
2023/10/28 01:27:01;;;;;;;240.60;223.87;;;9.00;99.90;;;;;;4892606;29;20047;-74
2023/10/28 01:29:28;;;;;;;232.73;216.73;;;9.00;99.90;;;;;;4893124;29;20299;-75
2023/10/28 01:31:54;;;;;;;255.50;238.77;;;9.00;99.90;;;;;;4892311;29;20296;-75
2023/10/28 01:34:22;;;;;;;207.30;191.97;;;9.00;99.90;;;;;;4889846;29;20842;-75
2023/10/28 01:36:48;;;;;;;240.77;225.23;;;9.00;99.90;;;;;;4892463;29;20289;-75
2023/10/28 01:39:15;;;;;;;256.97;240.67;;;9.00;99.90;;;;;;4891353;29;20309;-75
2023/10/28 01:41:42;;;;;;;238.73;222.97;;;9.00;99.90;;;;;;4891854;29;20815;-75
2023/10/28 01:44:08;;;;;;;183.20;170.23;;;9.00;99.90;;;;;;4873056;29;20296;-75
2023/10/28 01:46:34;;;;;;;242.57;227.43;;;8.90;99.90;;;;;;4894641;29;20297;-75
2023/10/28 01:48:59;;;;;;;262.63;247.53;;;8.90;99.90;;;;;;4876766;29;20128;-75
2023/10/28 01:51:25;;;;;;;243.97;229.03;;;8.90;99.90;;;;;;4892521;29;20484;-75
2023/10/28 01:53:51;;;;;;;236.83;222.43;;;8.90;99.90;;;;;;4896471;29;20413;-75
2023/10/28 01:56:17;;;;;;;216.30;202.90;;;8.90;99.90;;;;;;4899626;29;20040;-75
2023/10/28 01:58:43;;;;;;;243.57;228.87;;;8.90;99.90;;;;;;4880583;29;21451;-75
2023/10/28 02:01:09;;;;;;;245.33;230.83;;;8.90;99.90;;;;;;4897136;29;20763;-75
2023/10/28 02:03:34;;;;;;;217.77;203.23;;;8.80;99.90;;;;;;4897946;29;20067;-75
2023/10/28 02:06:00;;;;;;;240.93;226.53;;;8.80;99.90;;;;;;4892778;29;20168;-75
2023/10/28 02:08:26;;;;;;;233.97;219.57;;;8.80;99.90;;;;;;4897173;29;20040;-75
2023/10/28 02:10:51;;;;;;;217.23;203.73;;;8.70;99.90;;;;;;4893773;29;20036;-75
2023/10/28 02:13:17;;;;;;;220.47;206.77;;;8.70;99.90;;;;;;4878923;29;20124;-75
2023/10/28 02:15:44;;;;;;;255.97;241.47;;;8.60;99.90;;;;;;4896174;29;20529;-75
2023/10/28 02:18:10;;;;;;;217.10;203.40;;;8.60;99.90;;;;;;4896204;29;20560;-75
2023/10/28 02:20:36;;;;;;;200.90;188.40;;;8.50;99.90;;;;;;4879163;29;20305;-75
2023/10/28 02:23:02;;;;;;;231.10;217.10;;;8.40;99.90;;;;;;4878535;29;20059;-75
2023/10/28 02:25:28;;;;;;;208.57;195.53;;;8.40;99.90;;;;;;4890257;29;20048;-75
2023/10/28 02:27:54;;;;;;;220.97;208.27;;;8.40;99.90;;;;;;4880274;29;20281;-75
2023/10/28 02:30:19;;;;;;;234.47;221.23;;;8.30;99.90;;;;;;4877157;29;20501;-75
2023/10/28 02:32:45;;;;;;;202.23;190.20;;;8.30;99.90;;;;;;4895006;29;20044;-75
2023/10/28 02:35:11;;;;;;;218.03;205.00;;;8.20;99.90;;;;;;4881185;29;20048;-75
2023/10/28 02:37:39;;;;;;;212.57;199.93;;;8.10;99.90;;;;;;4896881;29;20048;-77
2023/10/28 02:40:08;;;;;;;183.30;171.53;;;8.10;99.90;;;;;;4873585;29;20514;-73
2023/10/28 02:42:34;;;;;;;175.10;164.33;;;8.00;99.90;;;;;;4892621;29;21122;-73
2023/10/28 02:45:00;;;;;;;206.40;194.13;;;7.90;99.90;;;;;;4876614;29;20282;-73
2023/10/28 02:47:25;;;;;;;178.60;167.37;;;7.90;99.90;;;;;;4891798;29;20315;-73
2023/10/28 02:49:51;;;;;;;185.87;173.83;;;7.90;99.90;;;;;;4891346;29;20127;-73
2023/10/28 02:52:17;;;;;;;190.87;178.53;;;7.80;99.90;;;;;;4876533;29;20096;-73
2023/10/28 02:54:43;;;;;;;170.50;159.53;;;7.80;99.90;;;;;;4892823;29;20048;-73
2023/10/28 02:57:08;;;;;;;195.57;184.00;;;7.70;99.90;;;;;;4890688;29;20040;-73
2023/10/28 02:59:34;;;;;;;179.90;168.77;;;7.70;99.90;;;;;;4891760;29;20494;-73
2023/10/28 03:02:00;;;;;;;212.33;200.67;;;7.60;99.90;;;;;;4876477;29;20032;-73
2023/10/28 03:04:25;;;;;;;183.00;172.43;;;7.60;99.90;;;;;;4876650;29;20049;-74
2023/10/28 03:06:52;;;;;;;161.07;150.83;;;7.50;99.90;;;;;;4891632;29;20049;-73
2023/10/28 03:09:17;;;;;;;167.68;156.45;;;7.50;99.90;;;;;;4874112;29;20052;-73
2023/10/28 03:11:43;;;;;;;183.70;171.87;;;7.50;99.90;;;;;;4893091;29;20414;-73
2023/10/28 03:14:09;;;;;;;156.27;145.80;;;7.50;99.90;;;;;;4875820;29;20661;-73
2023/10/28 03:16:34;;;;;;;150.33;139.40;;;7.40;99.90;;;;;;4875190;29;20047;-73
2023/10/28 03:19:00;;;;;;;168.27;157.20;;;7.40;99.90;;;;;;4892692;29;20044;-73
2023/10/28 03:21:26;;;;;;;163.97;153.10;;;7.40;99.90;;;;;;4875198;29;20044;-73
2023/10/28 03:23:51;;;;;;;184.00;173.10;;;7.30;99.90;;;;;;4892032;29;20494;-73
2023/10/28 03:26:17;;;;;;;176.57;165.03;;;7.30;99.90;;;;;;4891674;29;20454;-73
2023/10/28 03:28:43;;;;;;;166.10;153.73;;;7.30;99.90;;;;;;4893410;29;20045;-73
2023/10/28 03:31:09;;;;;;;165.60;153.67;;;7.20;99.90;;;;;;4873396;29;20131;-73
2023/10/28 03:33:37;;;;;;;174.27;162.95;;;7.20;99.90;;;;;;4879121;29;20214;-73
2023/10/28 03:36:04;;;;;;;168.25;156.98;;;7.10;99.90;;;;;;4890878;29;20127;-73
2023/10/28 03:38:30;;;;;;;206.43;194.52;;;7.10;99.90;;;;;;4878864;29;20055;-73
2023/10/28 03:40:56;;;;;;;130.97;120.37;;;7.10;99.90;;;;;;4889846;29;20041;-73
2023/10/28 03:43:22;;;;;;;157.32;146.32;;;7.10;99.90;;;;;;4878210;29;20039;-73
2023/10/28 03:45:48;;;;;;;132.27;121.53;;;7.00;99.90;;;;;;4889694;29;20036;-73
2023/10/28 03:48:14;;;;;;;151.20;140.18;;;7.00;99.90;;;;;;4888982;29;20033;-73
2023/10/28 03:50:40;;;;;;;151.17;141.27;;;7.00;99.90;;;;;;4878527;29;20041;-73
2023/10/28 03:53:06;;;;;;;156.23;146.30;;;7.00;99.90;;;;;;4905947;29;20048;-73
2023/10/28 03:55:32;;;;;;;132.70;122.70;;;6.90;99.90;;;;;;4876086;29;20048;-73
2023/10/28 03:57:58;;;;;;;139.83;128.80;;;6.90;99.90;;;;;;4878388;29;20041;-73
2023/10/28 04:00:23;;;;;;;165.57;155.00;;;6.90;99.90;;;;;;4877194;29;20767;-73
2023/10/28 04:02:52;;;;;;;142.53;131.50;;;6.90;99.90;;;;;;4889852;29;20081;-73
2023/10/28 04:05:18;;;;;;;136.20;126.72;;;6.80;99.90;;;;;;4877262;29;20127;-73
2023/10/28 04:07:44;;;;;;;135.77;124.87;;;6.80;99.90;;;;;;4889105;29;20184;-74
2023/10/28 04:10:10;;;;;;;136.38;126.00;;;6.80;99.90;;;;;;4892373;29;20045;-73
2023/10/28 04:12:39;;;;;;;139.27;129.95;;;6.70;99.90;;;;;;4891257;29;20053;-73
2023/10/28 04:15:05;;;;;;;130.35;120.82;;;6.70;99.90;;;;;;4890919;29;20036;-73
2023/10/28 04:17:31;;;;;;;145.52;136.15;;;6.70;99.90;;;;;;4873205;29;20037;-73
2023/10/28 04:19:58;;;;;;;136.43;125.88;;;6.60;99.90;;;;;;4889393;29;20552;-73
2023/10/28 04:22:24;;;;;;;193.90;182.70;;;6.60;99.90;;;;;;4889604;29;20196;-73
2023/10/28 04:24:50;;;;;;;162.23;151.98;;;6.60;99.90;;;;;;4875540;29;20049;-73
2023/10/28 04:27:16;;;;;;;184.27;173.43;;;6.60;99.90;;;;;;4888643;29;20461;-73
2023/10/28 04:29:41;;;;;;;307.77;292.80;;;6.60;99.90;;;;;;4874329;29;20048;-73
2023/10/28 04:32:07;;;;;;;311.40;295.60;;;6.60;99.90;;;;;;4885953;29;20094;-73
2023/10/28 04:34:33;;;;;;;300.13;285.53;;;6.60;99.90;;;;;;4890300;29;20045;-74
2023/10/28 04:36:58;;;;;;;308.33;292.77;;;6.60;99.90;;;;;;4889295;29;20346;-74
2023/10/28 04:39:24;;;;;;;312.13;295.93;;;6.70;99.90;;;;;;4873711;29;20075;-73
2023/10/28 04:41:52;;;;;;;295.30;279.80;;;6.70;99.90;;;;;;4890629;29;20044;-73
2023/10/28 04:44:18;;;;;;;317.75;302.05;;;6.80;99.90;;;;;;4891737;29;20522;-74
2023/10/28 04:46:44;;;;;;;342.90;325.37;;;6.80;99.90;;;;;;4884334;29;20080;-73
2023/10/28 04:49:12;;;;;;;294.30;279.50;;;6.90;99.90;;;;;;4874948;29;20493;-73
2023/10/28 04:51:38;;;;;;;330.15;313.00;;;7.00;99.90;;;;;;4890514;29;20038;-73
2023/10/28 04:54:06;;;;;;;344.38;326.95;;;7.00;99.90;;;;;;4893013;29;20450;-73
2023/10/28 04:56:32;;;;;;;333.98;316.92;;;7.10;99.90;;;;;;4891178;29;20047;-73
2023/10/28 04:58:57;;;;;;;354.38;335.83;;;7.10;99.90;;;;;;4891595;29;20040;-77
2023/10/28 05:01:23;;;;;;;330.90;313.40;;;7.10;99.90;;;;;;4892160;29;20043;-78
2023/10/28 05:03:50;;;;;;;333.47;316.17;;;7.20;99.90;;;;;;4891953;29;20045;-78
2023/10/28 05:06:15;;;;;;;301.77;285.98;;;7.20;99.90;;;;;;4897691;29;20044;-78
2023/10/28 05:08:41;;;;;;;329.77;312.23;;;7.30;99.90;;;;;;4877481;29;20041;-77
2023/10/28 05:11:08;;;;;;;337.87;319.63;;;7.30;99.90;;;;;;4891258;29;20076;-77
2023/10/28 05:13:34;;;;;;;359.35;340.85;;;7.30;99.90;;;;;;4878306;29;20048;-77
2023/10/28 05:16:00;;;;;;;329.80;312.23;;;7.30;99.90;;;;;;4877882;29;20044;-78
2023/10/28 05:18:26;;;;;;;315.43;298.17;;;7.30;99.90;;;;;;4877241;29;20071;-77
2023/10/28 05:20:53;;;;;;;317.63;300.80;;;7.30;99.90;;;;;;4893098;29;20557;-78
2023/10/28 05:23:19;;;;;;;213.98;200.60;;;7.40;99.90;;;;;;4893833;29;20501;-77
2023/10/28 05:25:45;;;;;;;200.35;188.27;;;7.40;99.90;;;;;;4878779;29;20060;-77
2023/10/28 05:28:11;;;;;;;197.55;185.40;;;7.30;99.90;;;;;;4891984;29;20497;-77
2023/10/28 05:30:37;;;;;;;155.63;145.03;;;7.30;99.90;;;;;;4892042;29;20059;-77
2023/10/28 05:33:03;;;;;;;193.23;181.17;;;7.40;99.90;;;;;;4890972;29;20123;-77
2023/10/28 05:35:28;;;;;;;146.90;136.23;;;7.30;99.90;;;;;;4875932;29;20135;-77
2023/10/28 05:37:54;;;;;;;122.50;111.63;;;7.30;99.90;;;;;;4878812;29;20140;-77
2023/10/28 05:40:20;;;;;;;154.93;143.23;;;7.30;99.90;;;;;;4892806;29;20047;-77
2023/10/28 05:42:46;;;;;;;184.27;171.52;;;7.30;99.90;;;;;;4896616;29;20055;-77
2023/10/28 05:45:14;;;;;;;150.03;138.97;;;7.40;99.90;;;;;;4891662;29;21272;-77
2023/10/28 05:47:40;;;;;;;168.48;156.40;;;7.40;99.90;;;;;;4893410;29;20541;-77
2023/10/28 05:50:07;;;;;;;154.77;142.63;;;7.50;99.90;;;;;;4877313;29;20160;-77
2023/10/28 05:52:34;;;;;;;261.83;244.93;;;7.60;99.90;;;;;;4892574;29;20032;-77
2023/10/28 05:55:00;;;;;;;413.60;391.17;;;7.60;99.90;;;;;;4877194;29;20044;-77
2023/10/28 05:57:26;;;;;;;386.60;365.45;;;7.70;99.90;;;;;;4893068;29;20555;-77
2023/10/28 05:59:52;;;;;;;386.93;366.10;;;7.80;99.90;;;;;;4877967;29;20040;-78
2023/10/28 06:02:18;;;;;;;411.40;389.73;;;7.80;99.90;;;;;;4881331;29;20095;-77
2023/10/28 06:04:44;;;;;;;422.50;399.13;;;7.80;99.90;;;;;;4892373;29;20041;-77
2023/10/28 06:07:09;;;;;;;392.67;371.27;;;7.90;99.90;;;;;;4892185;29;20048;-77
2023/10/28 06:09:36;;;;;;;357.23;337.83;;;7.90;99.90;;;;;;4876983;29;20048;-75
2023/10/28 06:12:02;;;;;;;431.45;408.85;;;7.90;99.90;;;;;;4909098;29;20108;-75
2023/10/28 06:14:27;;;;;;;429.13;406.33;;;7.90;99.90;;;;;;4906154;29;20048;-75
2023/10/28 06:16:53;;;;;;;451.13;426.97;;;8.00;99.90;;;;;;4875832;29;20040;-75
2023/10/28 06:19:21;;;;;;;523.97;495.27;;;8.00;99.90;;;;;;4875200;29;20049;-75
2023/10/28 06:21:48;;;;;;;550.80;520.65;;;8.00;99.90;;;;;;4876318;29;20036;-75
2023/10/28 06:24:13;;;;;;;548.33;519.15;;;8.10;99.90;;;;;;4876753;29;20041;-75
2023/10/28 06:26:39;;;;;;;568.80;537.67;;;8.10;99.90;;;;;;4882736;29;20052;-75
2023/10/28 06:29:05;;;;;;;534.27;504.97;;;8.10;99.90;;;;;;4874814;29;20084;-74
2023/10/28 06:31:32;;;;;;;538.53;509.70;;;8.20;99.90;;;;;;4888885;29;20064;-74
2023/10/28 06:34:00;;;;;;;562.00;531.30;;;8.30;99.90;;;;;;4892929;29;20280;-75
2023/10/28 06:36:28;;;;;;;553.33;524.35;;;8.30;99.90;;;;;;4875344;29;20371;-75
2023/10/28 06:38:56;;;;;;;570.78;540.10;;;8.40;99.90;;;;;;4877251;29;20043;-75
2023/10/28 06:41:22;;;;;;;566.73;536.17;;;8.40;99.90;;;;;;4894840;29;20486;-75
2023/10/28 06:43:48;;;;;;;561.73;530.73;;;8.50;99.90;;;;;;4879316;29;20289;-75
2023/10/28 06:46:14;;;;;;;565.40;535.43;;;8.50;99.90;;;;;;4877892;29;20041;-75
2023/10/28 06:48:40;;;;;;;605.77;572.00;;;8.60;99.90;;;;;;4876342;29;20077;-75
2023/10/28 06:51:06;;;;;;;558.20;527.97;;;8.60;99.90;;;;;;4894363;29;20336;-75
2023/10/28 06:53:32;;;;;;;555.17;525.80;;;8.70;99.90;;;;;;4879382;29;20036;-75
2023/10/28 06:56:02;;;;;;;604.83;572.03;;;8.70;99.90;;;;;;4892817;29;20409;-75
2023/10/28 06:58:28;;;;;;;592.08;559.88;;;8.80;99.90;;;;;;4892477;29;20120;-75
2023/10/28 07:00:54;;;;;;;621.97;588.43;;;8.80;99.90;;;;;;4891600;29;20515;-75
2023/10/28 07:03:20;;;;;;;613.60;580.40;;;8.90;99.90;;;;;;4879306;29;20364;-75
2023/10/28 07:05:46;;;;;;;603.97;571.93;;;8.90;99.90;;;;;;4895512;29;20057;-75
2023/10/28 07:08:11;;;;;;;623.93;589.93;;;9.00;99.90;;;;;;4879216;29;20176;-75
2023/10/28 07:10:37;;;;;;;619.80;586.37;;;9.00;99.90;;;;;;4880325;29;20040;-75
2023/10/28 07:13:03;;;;;;;621.47;586.77;;;9.10;99.90;;;;;;4881004;29;20284;-75
2023/10/28 07:15:29;;;;;;;604.80;572.73;;;9.10;99.90;;;;;;4895554;29;20048;-75
2023/10/28 07:17:55;;;;;;;628.67;594.10;;;9.20;99.90;;;;;;4894240;29;20519;-77
2023/10/28 07:20:20;;;;;;;578.87;548.07;;;9.20;99.90;;;;;;4879973;29;20070;-78
2023/10/28 07:22:47;;;;;;;609.07;576.40;;;9.30;99.90;;;;;;4897255;29;20385;-78
2023/10/28 07:25:12;;;;;;;643.50;606.77;;;9.30;99.90;;;;;;4877632;29;20041;-78
2023/10/28 07:27:38;;;;;;;631.83;597.40;;;9.40;99.90;;;;;;4882699;29;20280;-77
2023/10/28 07:30:05;;;;;;;664.10;626.87;;;9.50;99.90;;;;;;4886874;29;20051;-77
2023/10/28 07:32:31;;;;;;;654.57;617.33;;;9.60;99.90;;;;;;4880177;29;20125;-77
2023/10/28 07:34:57;;;;;;;650.43;614.53;;;9.60;99.90;;;;;;4879645;29;20313;-77
2023/10/28 07:37:23;;;;;;;636.33;600.37;;;9.60;99.90;;;;;;4894959;29;20141;-77
2023/10/28 07:39:49;;;;;;;671.87;634.43;;;9.70;99.90;;;;;;4902516;29;20316;-77
2023/10/28 07:42:15;;;;;;;640.90;605.30;;;9.80;99.90;;;;;;4894157;29;20296;-78
2023/10/28 07:44:41;;;;;;;662.67;623.50;;;9.80;99.90;;;;;;4893969;29;20055;-78
2023/10/28 07:47:08;;;;;;;685.03;647.47;;;9.80;99.90;;;;;;4878737;29;20289;-78
2023/10/28 07:49:34;;;;;;;649.37;612.83;;;9.80;99.90;;;;;;4883350;29;20284;-78
2023/10/28 07:51:59;;;;;;;646.23;610.57;;;9.90;99.90;;;;;;4891763;29;20296;-77
2023/10/28 07:54:25;;;;;;;637.77;602.10;;;9.90;99.90;;;;;;4877412;29;20112;-77
2023/10/28 07:56:51;;;;;;;691.20;651.40;;;9.90;99.90;;;;;;4883369;29;20040;-78
2023/10/28 07:59:17;;;;;;;639.27;602.50;;;9.90;99.90;;;;;;4884248;29;20284;-78
2023/10/28 08:01:43;;;;;;;622.70;588.43;;;9.90;99.90;;;;;;4879861;29;20044;-78
2023/10/28 08:04:08;;;;;;;659.33;621.77;;;9.90;99.90;;;;;;4880931;29;20052;-78
2023/10/28 08:06:34;;;;;;;639.40;603.50;;;9.90;99.90;;;;;;4882155;29;20040;-78
2023/10/28 08:09:04;;;;;;;301.63;286.20;;;9.90;99.90;;;;;;4879287;29;20401;-78
2023/10/28 08:11:30;;;;;;;676.67;637.87;;;9.90;99.90;;;;;;4894017;29;20276;-78
2023/10/28 08:13:56;;;;;;;628.43;594.00;;;9.90;99.90;;;;;;4880296;29;20303;-78
2023/10/28 08:16:23;;;;;;;639.57;604.67;;;9.90;99.90;;;;;;4892600;29;20991;-78
2023/10/28 08:18:49;;;;;;;646.30;611.73;;;9.90;99.90;;;;;;4887990;29;20041;-78
2023/10/28 08:21:16;;;;;;;666.63;629.37;;;9.90;99.90;;;;;;4894928;29;20357;-78
2023/10/28 08:23:43;;;;;;;651.13;614.97;;;10.00;99.90;;;;;;4895567;29;20289;-78
2023/10/28 08:26:10;;;;;;;691.77;652.03;;;10.00;99.90;;;;;;4888149;29;21058;-78
2023/10/28 08:28:36;;;;;;;645.37;609.93;;;10.00;99.90;;;;;;4878728;29;20392;-78
2023/10/28 08:31:02;;;;;;;626.13;592.60;;;10.00;99.90;;;;;;4872376;29;20638;-78
2023/10/28 08:33:28;;;;;;;643.63;608.23;;;10.00;99.90;;;;;;4887702;29;20568;-78
2023/10/28 08:35:56;;;;;;;644.53;606.33;;;10.10;99.90;;;;;;4877497;29;20285;-78
2023/10/28 08:38:22;;;;;;;638.27;603.90;;;10.10;99.90;;;;;;4891321;29;20056;-78
2023/10/28 08:40:49;;;;;;;570.83;541.47;;;10.10;99.90;;;;;;4892723;29;20308;-78
2023/10/28 08:43:17;;;;;;;561.63;532.30;;;10.10;99.90;;;;;;4877528;29;20326;-78
2023/10/28 08:45:43;;;;;;;584.60;554.87;;;10.20;99.90;;;;;;4878510;29;20285;-78
2023/10/28 08:48:10;;;;;;;595.90;565.93;;;10.20;99.90;;;;;;4894174;29;20328;-78
2023/10/28 08:50:39;;;;;;;610.70;577.63;;;10.20;99.90;;;;;;4892989;29;20285;-78
2023/10/28 08:53:08;;;;;;;548.43;521.10;;;10.20;99.90;;;;;;4888989;29;20283;-78
2023/10/28 08:55:36;;;;;;;572.23;542.37;;;10.20;99.90;;;;;;4872263;29;20301;-78
2023/10/28 08:58:03;;;;;;;589.83;558.30;;;10.20;99.90;;;;;;4883317;29;20417;-78
2023/10/28 09:00:30;;;;;;;589.73;559.30;;;10.20;99.90;;;;;;4892940;29;20313;-78
2023/10/28 09:02:56;;;;;;;578.30;548.70;;;10.20;99.90;;;;;;4878582;29;20292;-78
2023/10/28 09:05:22;;;;;;;590.20;558.83;;;10.30;99.90;;;;;;4887442;29;20380;-78
2023/10/28 09:07:48;;;;;;;643.70;608.13;;;10.30;99.90;;;;;;4875917;29;20350;-78
2023/10/28 09:10:15;;;;;;;605.67;572.60;;;10.30;99.90;;;;;;4893568;29;20132;-78
2023/10/28 09:12:41;;;;;;;644.60;609.57;;;10.40;99.90;;;;;;4892647;29;20139;-78
2023/10/28 09:15:11;;;;;;;602.87;571.63;;;10.40;99.90;;;;;;4870542;29;20301;-78
2023/10/28 09:17:39;;;;;;;535.47;508.80;;;10.50;99.90;;;;;;4873853;29;20337;-78
2023/10/28 09:20:09;;;;;;;516.23;490.63;;;10.50;99.90;;;;;;4869182;29;20312;-78
2023/10/28 09:22:42;;;;;;;524.07;498.10;;;10.60;99.90;;;;;;4869998;29;20333;-78
2023/10/28 09:25:10;;;;;;;516.20;490.67;;;10.60;99.90;;;;;;4901911;29;20299;-78
2023/10/28 09:27:36;;;;;;;514.53;488.93;;;10.60;99.90;;;;;;4889920;29;20299;-78
2023/10/28 09:30:12;;;;;;;497.00;473.13;;;10.70;99.90;;;;;;4894683;29;20293;-78
2023/10/28 09:32:38;;;;;;;399.47;380.30;;;10.70;99.90;;;;;;4892331;29;20851;-78
2023/10/28 09:35:06;;;;;;;556.07;527.57;;;10.80;99.90;;;;;;4899245;29;20285;-78
2023/10/28 09:37:37;;;;;;;590.67;560.57;;;10.80;99.90;;;;;;4900134;29;22541;-78
2023/10/28 09:40:05;;;;;;;555.47;527.73;;;10.80;99.90;;;;;;4878054;29;20863;-74
2023/10/28 09:42:32;;;;;;;567.00;537.67;;;10.80;99.90;;;;;;4893352;29;20304;-74
2023/10/28 09:45:05;;;;;;;563.23;534.17;;;10.90;99.90;;;;;;4879789;29;20292;-74
2023/10/28 09:47:49;;;;;;;524.23;498.00;;;10.90;99.90;;;;;;4887436;29;20293;-74
2023/10/28 09:50:16;;;;;;;496.03;471.70;;;11.00;99.90;;;;;;4884134;29;20719;-74
2023/10/28 09:52:43;;;;;;;530.60;504.10;;;11.00;99.90;;;;;;4867352;29;20296;-74
2023/10/28 09:55:15;;;;;;;561.97;533.13;;;11.10;99.90;;;;;;4888984;29;20932;-74
2023/10/28 09:57:44;;;;;;;495.90;471.27;;;11.00;99.90;;;;;;4874024;29;20285;-74
2023/10/28 10:00:17;;;;;;;550.53;522.93;;;11.00;99.90;;;;;;4893832;29;20824;-74
2023/10/28 10:03:29;;;;;;;508.00;482.87;;;11.10;99.90;;;;;;4891276;29;20315;-74
2023/10/28 10:05:55;;;;;;;540.13;512.87;;;11.10;99.90;;;;;;4888297;29;20292;-74
2023/10/28 10:08:23;;;;;;;527.37;501.23;;;11.10;99.90;;;;;;4890089;29;20285;-74
2023/10/28 10:10:54;;;;;;;522.30;496.20;;;11.10;99.90;;;;;;4887825;29;20281;-74
2023/10/28 10:13:21;;;;;;;305.10;291.67;;;11.10;99.90;;;;;;4891161;29;20289;-74
2023/10/28 10:16:10;;;;;;;327.93;313.23;;;11.10;99.90;;;;;;4880150;29;20285;-74
2023/10/28 10:18:44;;;;;;;246.40;235.20;;;11.20;99.90;;;;;;4897368;29;20749;-74
2023/10/28 10:21:15;;;;;;;320.13;305.17;;;11.10;99.90;;;;;;4876842;29;20372;-75
2023/10/28 10:23:44;;;;;;;261.93;249.60;;;11.20;99.90;;;;;;4916032;29;20682;-75
2023/10/28 10:26:27;;;;;;;352.33;335.77;;;11.20;99.90;;;;;;4892464;29;20786;-75
2023/10/28 10:28:55;;;;;;;257.80;246.23;;;11.20;99.90;;;;;;4891889;29;20285;-75
2023/10/28 10:31:32;;;;;;;237.83;227.40;;;11.20;99.90;;;;;;4885321;29;20299;-75
2023/10/28 10:34:01;;;;;;;369.10;352.50;;;11.20;99.90;;;;;;4886874;29;20300;-74
2023/10/28 10:36:29;;;;;;;361.50;345.53;;;11.30;99.90;;;;;;4878500;29;20409;-74
2023/10/28 10:38:55;;;;;;;364.40;347.00;;;11.30;99.90;;;;;;4888314;29;20296;-74
2023/10/28 10:41:29;;;;;;;361.73;345.23;;;11.30;99.90;;;;;;4893859;29;21062;-74
2023/10/28 10:43:55;;;;;;;379.30;361.52;;;11.40;99.90;;;;;;4890264;29;20908;-74
2023/10/28 10:46:21;;;;;;;366.03;349.30;;;11.50;99.90;;;;;;4894165;29;20127;-74
2023/10/28 10:48:49;;;;;;;325.73;311.27;;;11.60;99.90;;;;;;4875994;29;20048;-75
2023/10/28 10:51:15;;;;;;;346.30;330.27;;;11.70;99.90;;;;;;4879401;29;20049;-76
2023/10/28 10:53:44;;;;;;;337.40;322.20;;;11.80;99.90;;;;;;4892708;29;20854;-76
2023/10/28 10:56:20;;;;;;;381.97;364.27;;;11.80;99.90;;;;;;4865786;29;20293;-75
2023/10/28 10:58:46;;;;;;;480.53;457.23;;;11.80;99.90;;;;;;4863805;29;20344;-75
2023/10/28 11:01:12;;;;;;;535.60;508.77;;;11.80;99.90;;;;;;4876661;29;20312;-76
2023/10/28 11:03:39;;;;;;;539.27;512.07;;;11.60;99.90;;;;;;4888442;29;20718;-76
2023/10/28 11:06:06;;;;;;;559.40;530.50;;;11.60;99.90;;;;;;4878288;29;20349;-76
2023/10/28 11:08:32;;;;;;;562.80;534.53;;;11.60;99.90;;;;;;4894060;29;20296;-76
2023/10/28 11:10:58;;;;;;;533.13;506.53;;;11.60;99.90;;;;;;4886296;29;20280;-76
2023/10/28 11:13:23;;;;;;;527.03;500.23;;;11.70;99.90;;;;;;4890245;29;20062;-76
2023/10/28 11:15:51;;;;;;;538.43;511.27;;;11.70;99.90;;;;;;4873105;29;20048;-75
2023/10/28 11:18:16;;;;;;;539.00;511.47;;;11.70;99.90;;;;;;4893141;29;20040;-75
2023/10/28 11:20:42;;;;;;;570.73;541.53;;;11.60;99.90;;;;;;4884635;29;20824;-76
2023/10/28 11:23:08;;;;;;;531.33;505.10;;;11.60;99.90;;;;;;4863616;29;20404;-76
2023/10/28 11:25:35;;;;;;;521.10;495.50;;;11.60;99.90;;;;;;4874978;29;20490;-76
2023/10/28 11:28:11;;;;;;;358.33;341.70;;;11.70;99.90;;;;;;4885852;29;20131;-76
2023/10/28 11:30:37;;;;;;;443.27;422.07;;;11.70;99.90;;;;;;4889618;29;20403;-76
2023/10/28 11:33:13;;;;;;;437.43;415.77;;;11.80;99.90;;;;;;4895894;29;20809;-76
2023/10/28 11:35:39;;;;;;;461.63;439.93;;;11.90;99.90;;;;;;4876198;29;20423;-76
2023/10/28 11:38:06;;;;;;;462.10;439.97;;;12.00;99.90;;;;;;4889137;29;20295;-76
2023/10/28 11:40:33;;;;;;;434.00;413.63;;;12.00;99.90;;;;;;4890260;29;20850;-76
2023/10/28 11:43:03;;;;;;;471.57;448.57;;;12.20;99.90;;;;;;4892006;29;20369;-76
2023/10/28 11:45:29;;;;;;;519.60;493.70;;;12.20;99.90;;;;;;4895650;29;20285;-75
2023/10/28 11:47:55;;;;;;;554.77;526.27;;;12.30;99.90;;;;;;4889821;29;20296;-76
2023/10/28 11:50:21;;;;;;;523.60;495.93;;;12.30;99.90;;;;;;4872092;29;20044;-75
2023/10/28 11:52:47;;;;;;;581.87;551.73;;;12.30;99.90;;;;;;4886072;29;20059;-76
2023/10/28 11:55:14;;;;;;;529.63;503.07;;;12.20;99.90;;;;;;4902445;29;20296;-76
2023/10/28 11:57:39;;;;;;;530.87;503.23;;;12.30;99.90;;;;;;4895547;29;20305;-76
2023/10/28 12:00:06;;;;;;;496.33;472.03;;;12.30;99.90;;;;;;4903041;29;20314;-77
2023/10/28 12:02:33;;;;;;;534.03;506.93;;;12.30;99.90;;;;;;4900220;29;20097;-76
2023/10/28 12:04:59;;;;;;;560.87;530.60;;;12.40;99.90;;;;;;4900022;29;20338;-76
2023/10/28 12:07:24;;;;;;;593.33;560.90;;;12.40;99.90;;;;;;4897807;29;20405;-77
2023/10/28 12:10:07;;;;;;;559.27;529.30;;;12.40;99.90;;;;;;4899751;29;20568;-76
2023/10/28 12:12:32;;;;;;;530.83;503.77;;;12.40;99.90;;;;;;4883236;29;20289;-78